createdAt,value
2018-03-27T00:00:03.841Z,33.22
2018-03-27T00:02:30.487Z,34.53
2018-03-27T00:04:57.118Z,32.17
2018-03-27T00:07:23.759Z,36.40
2018-03-27T00:09:50.496Z,33.47
2018-03-27T00:12:17.121Z,35.45
2018-03-27T00:14:43.762Z,37.15
2018-03-27T00:17:10.401Z,36.03
2018-03-27T00:19:37.109Z,36.92
2018-03-27T00:22:03.705Z,36.22
2018-03-27T00:24:36.310Z,35.00
2018-03-27T00:27:02.817Z,33.38
2018-03-27T00:29:35.497Z,37.15
2018-03-27T00:32:07.953Z,39.45
2018-03-27T00:34:40.424Z,35.28
2018-03-27T00:37:13.014Z,36.85
2018-03-27T00:39:45.493Z,35.63
2018-03-27T00:42:17.877Z,35.72
2018-03-27T00:44:44.523Z,35.20
2018-03-27T00:47:11.160Z,35.92
2018-03-27T00:49:37.802Z,35.08
2018-03-27T00:52:04.437Z,34.95
2018-03-27T00:54:31.073Z,33.13
2018-03-27T00:56:57.712Z,35.97
2018-03-27T00:59:24.335Z,36.90
2018-03-27T01:01:51.093Z,33.47
2018-03-27T01:04:17.721Z,35.72
2018-03-27T01:06:44.360Z,36.53
2018-03-27T01:09:10.997Z,36.03
2018-03-27T01:11:37.748Z,35.05
2018-03-27T01:14:04.376Z,35.67
2018-03-27T01:16:31.119Z,35.25
2018-03-27T01:18:57.761Z,34.63
2018-03-27T01:21:24.395Z,36.72
2018-03-27T01:23:51.035Z,37.00
2018-03-27T01:26:17.681Z,34.85
2018-03-27T01:28:44.415Z,35.90
2018-03-27T01:31:11.060Z,34.35
2018-03-27T01:33:37.688Z,33.83
2018-03-27T01:36:04.341Z,35.80
2018-03-27T01:38:30.981Z,37.30
2018-03-27T01:40:57.608Z,36.50
2018-03-27T01:43:24.364Z,35.60
2018-03-27T01:45:51.105Z,38.28
2018-03-27T01:48:17.748Z,36.55
2018-03-27T01:50:44.508Z,37.83
2018-03-27T01:53:11.221Z,35.47
2018-03-27T01:55:37.847Z,37.42
2018-03-27T01:58:04.480Z,36.95
2018-03-27T02:00:31.116Z,35.80
2018-03-27T02:02:57.756Z,36.97
2018-03-27T02:05:24.421Z,36.03
2018-03-27T02:07:51.066Z,34.05
2018-03-27T02:10:17.806Z,37.20
2018-03-27T02:12:50.042Z,36.55
2018-03-27T02:15:22.360Z,39.47
2018-03-27T02:17:54.739Z,37.40
2018-03-27T02:20:27.136Z,38.17
2018-03-27T02:23:11.570Z,36.60
2018-03-27T02:25:38.205Z,38.83
2018-03-27T02:28:04.850Z,36.53
2018-03-27T02:30:31.477Z,37.65
2018-03-27T02:32:58.112Z,36.25
2018-03-27T02:35:24.867Z,36.20
2018-03-27T02:37:51.506Z,37.00
2018-03-27T02:40:18.195Z,38.85
2018-03-27T02:42:44.798Z,37.35
2018-03-27T02:45:11.445Z,40.55
2018-03-27T02:47:38.089Z,38.40
2018-03-27T02:50:04.786Z,37.25
2018-03-27T02:52:31.524Z,38.10
2018-03-27T02:54:58.270Z,36.28
2018-03-27T02:57:24.901Z,35.35
2018-03-27T02:59:51.556Z,39.90
2018-03-27T03:02:18.183Z,39.83
2018-03-27T03:04:44.817Z,38.60
2018-03-27T03:07:11.449Z,39.50
2018-03-27T03:09:38.084Z,37.40
2018-03-27T03:12:04.725Z,43.95
2018-03-27T03:14:31.365Z,42.17
2018-03-27T03:16:58.012Z,39.15
2018-03-27T03:19:24.680Z,39.15
2018-03-27T03:21:51.392Z,39.30
2018-03-27T03:24:18.025Z,39.20
2018-03-27T03:26:44.777Z,37.30
2018-03-27T03:29:11.400Z,37.85
2018-03-27T03:31:38.153Z,35.97
2018-03-27T03:34:04.820Z,35.85
2018-03-27T03:36:31.477Z,32.80
2018-03-27T03:38:58.185Z,37.55
2018-03-27T03:41:24.943Z,36.75
2018-03-27T03:43:51.621Z,35.00
2018-03-27T03:46:18.266Z,39.65
2018-03-27T03:48:44.938Z,39.83
2018-03-27T03:51:11.576Z,37.40
2018-03-27T03:53:38.195Z,35.53
2018-03-27T03:56:04.879Z,38.45
2018-03-27T03:58:31.540Z,39.88
2018-03-27T04:00:58.180Z,34.80
2018-03-27T04:03:24.899Z,36.47
2018-03-27T04:05:51.540Z,39.55
2018-03-27T04:08:18.210Z,38.53
2018-03-27T04:10:44.900Z,38.95
2018-03-27T04:13:11.539Z,39.22
2018-03-27T04:15:38.272Z,39.53
2018-03-27T04:18:04.921Z,38.97
2018-03-27T04:20:31.649Z,37.83
2018-03-27T04:22:58.284Z,39.17
2018-03-27T04:25:24.936Z,39.08
2018-03-27T04:27:51.588Z,39.35
2018-03-27T04:30:18.230Z,39.15
2018-03-27T04:32:44.977Z,39.75
2018-03-27T04:35:11.611Z,37.90
2018-03-27T04:37:38.250Z,40.97
2018-03-27T04:40:04.889Z,41.40
2018-03-27T04:42:31.636Z,39.25
2018-03-27T04:44:58.377Z,41.15
2018-03-27T04:47:25.025Z,39.05
2018-03-27T04:49:51.657Z,42.45
2018-03-27T04:52:18.397Z,38.25
2018-03-27T04:54:45.139Z,39.30
2018-03-27T04:57:11.771Z,40.47
2018-03-27T04:59:38.408Z,41.50
2018-03-27T05:02:05.041Z,40.42
2018-03-27T05:04:31.685Z,40.28
2018-03-27T05:06:58.413Z,38.65
2018-03-27T05:09:25.048Z,40.10
2018-03-27T05:11:51.685Z,39.25
2018-03-27T05:14:18.332Z,41.58
2018-03-27T05:16:44.960Z,41.80
2018-03-27T05:19:11.608Z,43.63
2018-03-27T05:21:38.238Z,38.92
2018-03-27T05:24:04.990Z,40.70
2018-03-27T05:26:31.769Z,40.88
2018-03-27T05:28:58.473Z,41.58
2018-03-27T05:31:25.121Z,43.87
2018-03-27T05:33:51.767Z,41.90
2018-03-27T05:36:18.402Z,40.47
2018-03-27T05:38:45.041Z,40.63
2018-03-27T05:41:11.664Z,41.58
2018-03-27T05:43:38.298Z,43.45
2018-03-27T05:46:05.045Z,43.20
2018-03-27T05:48:31.676Z,42.90
2018-03-27T05:50:58.323Z,43.00
2018-03-27T05:53:24.969Z,57.15
2018-03-27T05:55:51.680Z,53.08
2018-03-27T05:58:18.269Z,53.80
2018-03-27T06:00:44.990Z,46.45
2018-03-27T06:03:11.625Z,39.58
2018-03-27T06:05:38.265Z,38.90
2018-03-27T06:08:04.999Z,37.80
2018-03-27T06:10:31.646Z,40.00
2018-03-27T06:12:58.280Z,36.33
2018-03-27T06:15:24.944Z,39.17
2018-03-27T06:17:51.577Z,38.10
2018-03-27T06:20:18.215Z,37.17
2018-03-27T06:22:44.944Z,39.65
2018-03-27T06:25:11.585Z,40.92
2018-03-27T06:27:38.330Z,40.47
2018-03-27T06:30:05.088Z,38.95
2018-03-27T06:32:31.720Z,41.13
2018-03-27T06:34:58.442Z,40.50
2018-03-27T06:37:25.182Z,39.63
2018-03-27T06:39:51.816Z,41.35
2018-03-27T06:42:18.499Z,40.53
2018-03-27T06:44:45.126Z,35.50
2018-03-27T06:47:11.850Z,37.22
2018-03-27T06:49:38.480Z,39.40
2018-03-27T06:52:05.220Z,37.50
2018-03-27T06:54:31.852Z,38.25
2018-03-27T06:56:58.611Z,37.42
2018-03-27T06:59:25.249Z,39.20
2018-03-27T07:01:51.891Z,38.17
2018-03-27T07:04:18.520Z,38.03
2018-03-27T07:06:45.157Z,36.83
2018-03-27T07:09:11.935Z,37.05
2018-03-27T07:11:38.559Z,38.10
2018-03-27T07:14:05.205Z,39.47
2018-03-27T07:16:31.881Z,39.65
2018-03-27T07:18:58.581Z,43.13
2018-03-27T07:21:25.303Z,40.08
2018-03-27T07:23:51.953Z,39.28
2018-03-27T07:26:18.686Z,39.50
2018-03-27T07:28:45.324Z,38.28
2018-03-27T07:31:11.969Z,39.15
2018-03-27T07:33:38.607Z,38.85
2018-03-27T07:36:05.232Z,38.42
2018-03-27T07:38:31.872Z,37.63
2018-03-27T07:40:58.509Z,35.55
2018-03-27T07:43:25.149Z,38.58
2018-03-27T07:45:51.784Z,39.92
2018-03-27T07:48:18.457Z,39.47
2018-03-27T07:50:45.085Z,37.13
2018-03-27T07:53:11.738Z,37.90
2018-03-27T07:55:38.369Z,40.53
2018-03-27T07:58:05.021Z,38.15
2018-03-27T08:00:31.656Z,37.92
2018-03-27T08:02:58.369Z,42.30
2018-03-27T08:05:25.117Z,39.08
2018-03-27T08:07:51.759Z,39.88
2018-03-27T08:10:18.397Z,37.70
2018-03-27T08:12:45.156Z,37.00
2018-03-27T08:15:11.805Z,34.55
2018-03-27T08:17:38.431Z,34.85
2018-03-27T08:20:05.160Z,31.67
2018-03-27T08:22:31.783Z,35.40
2018-03-27T08:24:58.428Z,36.47
2018-03-27T08:27:25.128Z,34.30
2018-03-27T08:29:51.834Z,33.47
2018-03-27T08:32:18.465Z,30.62
2018-03-27T08:34:45.115Z,32.63
2018-03-27T08:37:11.752Z,32.10
2018-03-27T08:39:38.493Z,29.90
2018-03-27T08:42:05.236Z,29.48
2018-03-27T08:44:31.976Z,32.17
2018-03-27T08:46:58.688Z,26.58
2018-03-27T08:49:25.355Z,24.50
2018-03-27T08:51:51.993Z,24.17
2018-03-27T08:54:18.628Z,23.90
2018-03-27T08:56:45.256Z,25.40
2018-03-27T08:59:11.889Z,27.42
2018-03-27T09:01:38.537Z,26.65
2018-03-27T09:04:05.300Z,23.15
2018-03-27T09:06:32.008Z,22.58
2018-03-27T09:08:58.757Z,26.10
2018-03-27T09:11:25.483Z,24.85
2018-03-27T09:13:52.136Z,23.80
2018-03-27T09:16:18.780Z,22.52
2018-03-27T09:18:45.412Z,23.52
2018-03-27T09:21:12.065Z,23.20
2018-03-27T09:23:38.787Z,18.35
2018-03-27T09:26:05.420Z,18.33
2018-03-27T09:28:32.064Z,16.62
2018-03-27T09:30:58.709Z,17.10
2018-03-27T09:33:25.447Z,15.98
2018-03-27T09:35:52.084Z,16.65
2018-03-27T09:38:18.716Z,18.45
2018-03-27T09:40:45.369Z,16.55
2018-03-27T09:43:11.999Z,18.55
2018-03-27T09:45:38.644Z,17.35
2018-03-27T09:48:05.278Z,17.37
2018-03-27T09:50:32.869Z,16.42
2018-03-27T09:52:59.589Z,17.52
2018-03-27T09:55:26.334Z,17.65
2018-03-27T09:57:52.994Z,19.65
2018-03-27T10:00:25.395Z,18.02
2018-03-27T10:02:52.042Z,19.70
2018-03-27T10:05:18.675Z,21.62
2018-03-27T10:07:45.363Z,20.70
2018-03-27T10:10:12.001Z,20.27
2018-03-27T10:12:38.644Z,22.00
2018-03-27T10:15:05.274Z,22.13
2018-03-27T10:17:32.026Z,22.30
2018-03-27T10:19:58.658Z,22.23
2018-03-27T10:22:25.300Z,24.42
2018-03-27T10:24:52.028Z,23.35
2018-03-27T10:27:18.716Z,24.00
2018-03-27T10:29:45.308Z,23.58
2018-03-27T10:32:11.949Z,23.60
2018-03-27T10:34:38.580Z,22.62
2018-03-27T10:37:05.223Z,23.38
2018-03-27T10:39:31.858Z,18.87
2018-03-27T10:41:58.492Z,21.35
2018-03-27T10:44:25.123Z,20.52
2018-03-27T10:46:51.758Z,21.15
2018-03-27T10:49:18.411Z,21.02
2018-03-27T10:51:45.039Z,21.98
2018-03-27T10:54:11.689Z,20.98
2018-03-27T10:56:38.327Z,20.75
2018-03-27T10:59:05.008Z,20.65
2018-03-27T11:01:31.724Z,19.58
2018-03-27T11:03:58.384Z,19.02
2018-03-27T11:06:25.004Z,18.65
2018-03-27T11:08:51.644Z,20.33
2018-03-27T11:11:18.269Z,20.20
2018-03-27T11:13:45.016Z,22.13
2018-03-27T11:16:11.645Z,23.30
2018-03-27T11:18:38.280Z,23.35
2018-03-27T11:21:04.964Z,25.02
2018-03-27T11:23:31.686Z,26.87
2018-03-27T11:25:58.335Z,25.42
2018-03-27T11:28:24.984Z,24.60
2018-03-27T11:30:51.709Z,26.58
2018-03-27T11:33:18.343Z,27.23
2018-03-27T11:35:44.986Z,28.35
2018-03-27T11:38:11.616Z,28.42
2018-03-27T11:40:38.359Z,27.30
2018-03-27T11:43:05.100Z,27.70
2018-03-27T11:45:31.741Z,25.23
2018-03-27T11:47:58.365Z,24.83
2018-03-27T11:50:25.003Z,25.30
2018-03-27T11:52:51.660Z,24.15
2018-03-27T11:55:18.296Z,24.08
2018-03-27T11:57:45.041Z,24.15
2018-03-27T12:00:11.696Z,23.02
2018-03-27T12:02:38.336Z,21.60
2018-03-27T12:05:04.981Z,26.00
2018-03-27T12:07:31.744Z,23.23
2018-03-27T12:09:58.443Z,26.00
2018-03-27T12:12:25.176Z,25.48
2018-03-27T12:14:51.826Z,26.62
2018-03-27T12:17:18.584Z,30.70
2018-03-27T12:19:45.218Z,24.12
2018-03-27T12:22:11.933Z,25.75
2018-03-27T12:24:38.571Z,27.08
2018-03-27T12:27:05.346Z,30.75
2018-03-27T12:29:31.975Z,27.08
2018-03-27T12:31:58.829Z,29.48
2018-03-27T12:34:25.612Z,21.80
2018-03-27T12:36:52.382Z,20.23
2018-03-27T12:39:19.156Z,17.20
2018-03-27T12:41:46.408Z,27.30
2018-03-27T12:44:13.234Z,19.10
2018-03-27T12:46:39.990Z,17.80
2018-03-27T12:49:06.691Z,16.35
2018-03-27T12:51:34.566Z,17.05
2018-03-27T12:54:01.857Z,17.52
2018-03-27T12:56:28.558Z,17.55
2018-03-27T12:58:55.213Z,18.52
2018-03-27T13:01:21.885Z,32.15
2018-03-27T13:03:48.517Z,19.98
2018-03-27T13:06:15.155Z,16.40
2018-03-27T13:08:41.794Z,15.60
2018-03-27T13:11:08.506Z,13.35
2018-03-27T13:13:35.140Z,13.50
2018-03-27T13:16:01.773Z,12.85
2018-03-27T13:18:28.533Z,26.75
2018-03-27T13:20:55.268Z,15.73
2018-03-27T13:23:21.912Z,14.02
2018-03-27T13:25:48.653Z,19.83
2018-03-27T13:28:15.387Z,23.35
2018-03-27T13:30:42.016Z,37.08
2018-03-27T13:33:08.772Z,18.23
2018-03-27T13:35:35.405Z,16.50
2018-03-27T13:38:02.058Z,16.25
2018-03-27T13:40:28.687Z,14.55
2018-03-27T13:42:55.424Z,14.50
2018-03-27T13:45:22.095Z,14.80
2018-03-27T13:47:48.817Z,14.13
2018-03-27T13:50:15.449Z,15.32
2018-03-27T13:52:42.188Z,16.87
2018-03-27T13:55:08.824Z,16.75
2018-03-27T13:57:35.457Z,15.82
2018-03-27T14:00:02.119Z,15.35
2018-03-27T14:02:28.756Z,18.00
2018-03-27T14:04:55.393Z,16.40
2018-03-27T14:07:22.020Z,16.52
2018-03-27T14:09:48.768Z,15.10
2018-03-27T14:12:15.393Z,16.90
2018-03-27T14:14:42.145Z,17.30
2018-03-27T14:17:08.780Z,17.53
2018-03-27T14:19:35.412Z,18.45
2018-03-27T14:22:02.049Z,17.60
2018-03-27T14:24:28.701Z,17.30
2018-03-27T14:26:55.324Z,17.50
2018-03-27T14:29:21.967Z,19.60
2018-03-27T14:31:48.637Z,21.50
2018-03-27T14:34:15.294Z,17.90
2018-03-27T14:36:42.005Z,17.60
2018-03-27T14:39:08.640Z,18.90
2018-03-27T14:41:35.276Z,16.02
2018-03-27T14:44:02.021Z,16.60
2018-03-27T14:46:28.685Z,20.12
2018-03-27T14:48:55.405Z,17.05
2018-03-27T14:51:22.058Z,15.82
2018-03-27T14:53:48.699Z,15.23
2018-03-27T14:56:15.342Z,16.15
2018-03-27T14:58:41.977Z,16.73
2018-03-27T15:01:08.619Z,16.02
2018-03-27T15:03:35.337Z,16.73
2018-03-27T15:06:01.985Z,17.40
2018-03-27T15:08:28.617Z,18.48
2018-03-27T15:10:55.352Z,16.17
2018-03-27T15:13:21.996Z,18.83
2018-03-27T15:15:48.740Z,17.98
2018-03-27T15:18:15.480Z,18.02
2018-03-27T15:20:42.129Z,17.00
2018-03-27T15:23:08.760Z,18.50
2018-03-27T15:25:35.512Z,17.55
2018-03-27T15:28:02.245Z,18.12
2018-03-27T15:30:28.895Z,17.25
2018-03-27T15:32:55.622Z,18.48
2018-03-27T15:35:22.251Z,17.27
2018-03-27T15:37:48.910Z,18.62
2018-03-27T15:40:15.877Z,17.52
2018-03-27T15:42:42.576Z,16.27
2018-03-27T15:45:09.208Z,16.23
2018-03-27T15:47:35.839Z,15.00
2018-03-27T15:50:02.496Z,14.82
2018-03-27T15:52:29.245Z,14.18
2018-03-27T15:54:55.877Z,14.43
2018-03-27T15:57:22.629Z,14.90
2018-03-27T15:59:49.360Z,13.90
2018-03-27T16:02:16.003Z,15.40
2018-03-27T16:04:42.637Z,15.15
2018-03-27T16:07:09.285Z,14.13
2018-03-27T16:09:35.912Z,15.20
2018-03-27T16:12:02.668Z,14.40
2018-03-27T16:14:29.413Z,14.55
2018-03-27T16:16:56.149Z,14.85
2018-03-27T16:19:22.789Z,17.20
2018-03-27T16:21:49.441Z,16.85
2018-03-27T16:24:16.169Z,17.35
2018-03-27T16:26:42.805Z,18.52
2018-03-27T16:29:09.477Z,19.65
2018-03-27T16:31:36.109Z,19.80
2018-03-27T16:34:02.745Z,18.30
2018-03-27T16:36:29.382Z,17.77
2018-03-27T16:38:56.105Z,17.10
2018-03-27T16:41:22.738Z,16.52
2018-03-27T16:43:49.394Z,18.08
2018-03-27T16:46:16.021Z,17.15
2018-03-27T16:48:42.767Z,17.80
2018-03-27T16:51:09.392Z,19.98
2018-03-27T16:53:36.033Z,18.73
2018-03-27T16:56:02.676Z,19.40
2018-03-27T16:58:29.425Z,18.50
2018-03-27T17:00:56.226Z,17.95
2018-03-27T17:03:22.865Z,17.85
2018-03-27T17:05:49.501Z,17.45
2018-03-27T17:08:16.141Z,16.00
2018-03-27T17:10:42.820Z,17.70
2018-03-27T17:13:09.470Z,16.98
2018-03-27T17:15:36.104Z,18.80
2018-03-27T17:18:02.732Z,17.83
2018-03-27T17:20:29.368Z,17.17
2018-03-27T17:22:56.103Z,17.17
2018-03-27T17:25:22.745Z,16.90
2018-03-27T17:27:49.382Z,18.80
2018-03-27T17:30:16.024Z,17.87
2018-03-27T17:32:42.661Z,17.80
2018-03-27T17:35:09.300Z,17.00
2018-03-27T17:37:35.938Z,19.33
2018-03-27T17:40:02.580Z,16.98
2018-03-27T17:42:29.208Z,20.62
2018-03-27T17:44:55.843Z,19.23
2018-03-27T17:47:22.480Z,20.58
2018-03-27T17:49:49.116Z,18.85
2018-03-27T17:52:15.784Z,22.77
2018-03-27T17:54:42.419Z,18.77
2018-03-27T17:57:09.049Z,18.90
2018-03-27T17:59:35.699Z,19.58
2018-03-27T18:02:02.337Z,21.10
2018-03-27T18:04:28.964Z,21.25
2018-03-27T18:06:55.605Z,20.50
2018-03-27T18:09:22.260Z,21.30
2018-03-27T18:11:48.902Z,22.30
2018-03-27T18:14:15.534Z,20.20
2018-03-27T18:16:42.182Z,22.13
2018-03-27T18:19:08.812Z,18.95
2018-03-27T18:21:35.475Z,18.65
2018-03-27T18:24:02.103Z,21.37
2018-03-27T18:26:28.750Z,21.75
2018-03-27T18:28:55.476Z,24.00
2018-03-27T18:31:22.108Z,20.52
2018-03-27T18:33:48.738Z,21.95
2018-03-27T18:36:15.380Z,21.60
2018-03-27T18:38:42.024Z,19.87
2018-03-27T18:41:08.673Z,20.75
2018-03-27T18:43:35.404Z,16.75
2018-03-27T18:46:02.049Z,19.42
2018-03-27T18:48:28.683Z,18.35
2018-03-27T18:50:55.472Z,19.45
2018-03-27T18:53:22.085Z,19.48
2018-03-27T18:55:48.708Z,20.05
2018-03-27T18:58:15.480Z,20.65
2018-03-27T19:00:42.115Z,20.85
2018-03-27T19:03:08.759Z,19.95
2018-03-27T19:05:35.500Z,20.23
2018-03-27T19:08:02.134Z,19.25
2018-03-27T19:10:28.791Z,19.42
2018-03-27T19:12:55.517Z,19.45
2018-03-27T19:15:22.154Z,19.35
2018-03-27T19:17:48.798Z,18.08
2018-03-27T19:20:15.524Z,19.75
2018-03-27T19:22:42.160Z,19.17
2018-03-27T19:25:08.788Z,19.58
2018-03-27T19:27:35.428Z,19.55
2018-03-27T19:30:02.063Z,19.77
2018-03-27T19:32:28.697Z,19.37
2018-03-27T19:34:55.339Z,19.10
2018-03-27T19:37:22.093Z,17.73
2018-03-27T19:39:48.729Z,20.35
2018-03-27T19:42:15.351Z,19.65
2018-03-27T19:44:41.992Z,17.95
2018-03-27T19:47:08.629Z,20.55
2018-03-27T19:49:35.388Z,19.85
2018-03-27T19:52:02.022Z,20.10
2018-03-27T19:54:28.687Z,19.42
2018-03-27T19:56:55.400Z,26.23
2018-03-27T19:59:22.148Z,30.65
2018-03-27T20:01:48.775Z,22.40
2018-03-27T20:04:15.412Z,19.50
2018-03-27T20:06:42.045Z,23.48
2018-03-27T20:09:08.687Z,20.02
2018-03-27T20:11:35.343Z,21.52
2018-03-27T20:14:01.989Z,23.08
2018-03-27T20:16:28.614Z,23.65
2018-03-27T20:18:55.262Z,23.60
2018-03-27T20:21:21.998Z,23.17
2018-03-27T20:23:48.742Z,23.67
2018-03-27T20:26:15.480Z,24.58
2018-03-27T20:28:42.136Z,22.20
2018-03-27T20:31:08.763Z,23.10
2018-03-27T20:33:35.503Z,23.73
2018-03-27T20:36:02.141Z,25.58
2018-03-27T20:38:28.891Z,23.65
2018-03-27T20:40:55.527Z,26.95
2018-03-27T20:43:22.153Z,23.10
2018-03-27T20:45:48.792Z,21.55
2018-03-27T20:48:15.425Z,24.30
2018-03-27T20:50:42.068Z,25.98
2018-03-27T20:53:08.696Z,21.58
2018-03-27T20:55:35.358Z,22.58
2018-03-27T20:58:01.983Z,22.85
2018-03-27T21:00:28.624Z,23.17
2018-03-27T21:02:55.268Z,23.58
2018-03-27T21:05:21.904Z,22.75
2018-03-27T21:07:48.562Z,20.70
2018-03-27T21:10:15.329Z,23.23
2018-03-27T21:12:41.972Z,22.20
2018-03-27T21:15:08.680Z,23.70
2018-03-27T21:17:35.417Z,25.65
2018-03-27T21:20:02.153Z,24.87
2018-03-27T21:22:28.794Z,24.17
2018-03-27T21:24:55.441Z,23.30
2018-03-27T21:27:22.077Z,24.05
2018-03-27T21:29:48.704Z,21.73
2018-03-27T21:32:15.339Z,22.55
2018-03-27T21:34:41.974Z,23.87
2018-03-27T21:37:08.614Z,22.58
2018-03-27T21:39:35.294Z,22.02
2018-03-27T21:42:01.936Z,22.20
2018-03-27T21:44:28.643Z,22.87
2018-03-27T21:46:55.387Z,22.60
2018-03-27T21:49:22.015Z,22.90
2018-03-27T21:51:48.771Z,23.83
2018-03-27T21:54:15.507Z,23.75
2018-03-27T21:56:42.150Z,24.60
2018-03-27T21:59:08.781Z,23.83
2018-03-27T22:01:35.420Z,23.17
2018-03-27T22:04:02.052Z,25.12
2018-03-27T22:06:28.808Z,25.08
2018-03-27T22:08:55.562Z,23.75
2018-03-27T22:11:22.291Z,24.60
2018-03-27T22:13:49.037Z,23.87
2018-03-27T22:16:15.665Z,23.15
2018-03-27T22:18:42.424Z,24.60
2018-03-27T22:21:09.060Z,24.42
2018-03-27T22:23:35.769Z,25.73
2018-03-27T22:26:02.352Z,25.83
2018-03-27T22:28:29.007Z,25.45
2018-03-27T22:30:55.713Z,23.95
2018-03-27T22:33:22.361Z,22.00
2018-03-27T22:35:49.091Z,22.60
2018-03-27T22:38:15.759Z,24.60
2018-03-27T22:40:42.468Z,24.73
2018-03-27T22:43:09.110Z,24.92
2018-03-27T22:45:35.744Z,25.35
2018-03-27T22:48:02.385Z,24.20
2018-03-27T22:50:29.017Z,28.52
2018-03-27T22:52:55.655Z,24.77
2018-03-27T22:55:22.303Z,26.20
2018-03-27T22:57:48.952Z,25.33
2018-03-27T23:00:18.664Z,24.00
2018-03-27T23:02:45.298Z,25.65
2018-03-27T23:05:11.941Z,26.48
2018-03-27T23:07:38.577Z,24.63
2018-03-27T23:10:05.346Z,26.95
2018-03-27T23:12:31.972Z,26.58
2018-03-27T23:14:58.615Z,26.00
2018-03-27T23:17:25.331Z,27.40
2018-03-27T23:19:51.972Z,27.98
2018-03-27T23:22:24.351Z,25.88
2018-03-27T23:24:50.989Z,25.35
2018-03-27T23:27:17.738Z,27.27
2018-03-27T23:29:44.385Z,27.02
2018-03-27T23:32:11.103Z,25.80
2018-03-27T23:34:37.736Z,25.60
2018-03-27T23:37:04.372Z,26.80
2018-03-27T23:39:31.017Z,29.35
2018-03-27T23:41:57.643Z,27.17
2018-03-27T23:44:24.296Z,26.20
2018-03-27T23:46:50.925Z,26.08
2018-03-27T23:49:17.579Z,26.77
2018-03-27T23:51:44.272Z,25.75
2018-03-27T23:54:10.921Z,26.10
2018-03-27T23:56:37.565Z,28.23
2018-03-27T23:59:04.193Z,29.67
